sensor_id;sensor_type;location;lat;lon;timestamp;P1;durP1;ratioP1;P2;durP2;ratioP2
24449;SDS011;13349;50.984;5.822;2023-01-13T00:01:38;0.63;;;0.32;;
24449;SDS011;13349;50.984;5.822;2023-01-13T00:04:07;1.63;;;0.40;;
24449;SDS011;13349;50.984;5.822;2023-01-13T00:06:35;1.00;;;0.43;;
24449;SDS011;13349;50.984;5.822;2023-01-13T00:09:02;0.35;;;0.30;;
24449;SDS011;13349;50.984;5.822;2023-01-13T00:11:31;1.63;;;0.40;;
24449;SDS011;13349;50.984;5.822;2023-01-13T00:13:58;0.82;;;0.50;;
24449;SDS011;13349;50.984;5.822;2023-01-13T00:16:26;0.90;;;0.47;;
24449;SDS011;13349;50.984;5.822;2023-01-13T00:18:53;1.00;;;0.50;;
24449;SDS011;13349;50.984;5.822;2023-01-13T00:21:21;1.52;;;0.80;;
24449;SDS011;13349;50.984;5.822;2023-01-13T00:23:51;1.08;;;0.50;;
24449;SDS011;13349;50.984;5.822;2023-01-13T00:26:19;5.03;;;0.50;;
24449;SDS011;13349;50.984;5.822;2023-01-13T00:28:49;2.60;;;0.45;;
24449;SDS011;13349;50.984;5.822;2023-01-13T00:31:17;1.98;;;0.60;;
24449;SDS011;13349;50.984;5.822;2023-01-13T00:33:46;2.20;;;0.60;;
24449;SDS011;13349;50.984;5.822;2023-01-13T00:36:15;1.63;;;0.50;;
24449;SDS011;13349;50.984;5.822;2023-01-13T00:38:44;6.00;;;0.80;;
24449;SDS011;13349;50.984;5.822;2023-01-13T00:41:13;3.53;;;0.75;;
24449;SDS011;13349;50.984;5.822;2023-01-13T00:43:41;4.35;;;0.82;;
24449;SDS011;13349;50.984;5.822;2023-01-13T00:46:10;3.97;;;1.02;;
24449;SDS011;13349;50.984;5.822;2023-01-13T00:48:39;1.67;;;0.60;;
24449;SDS011;13349;50.984;5.822;2023-01-13T00:51:07;2.35;;;0.90;;
24449;SDS011;13349;50.984;5.822;2023-01-13T00:53:38;2.75;;;0.70;;
24449;SDS011;13349;50.984;5.822;2023-01-13T00:56:07;3.55;;;0.70;;
24449;SDS011;13349;50.984;5.822;2023-01-13T00:58:39;3.80;;;0.70;;
24449;SDS011;13349;50.984;5.822;2023-01-13T01:01:07;4.88;;;0.70;;
24449;SDS011;13349;50.984;5.822;2023-01-13T01:03:37;3.33;;;0.70;;
24449;SDS011;13349;50.984;5.822;2023-01-13T01:06:05;3.28;;;0.90;;
24449;SDS011;13349;50.984;5.822;2023-01-13T01:08:34;1.75;;;0.68;;
24449;SDS011;13349;50.984;5.822;2023-01-13T01:11:03;3.20;;;0.60;;
24449;SDS011;13349;50.984;5.822;2023-01-13T01:13:32;2.30;;;0.85;;
24449;SDS011;13349;50.984;5.822;2023-01-13T01:16:02;3.05;;;0.77;;
24449;SDS011;13349;50.984;5.822;2023-01-13T01:18:32;2.42;;;0.70;;
24449;SDS011;13349;50.984;5.822;2023-01-13T01:21:01;4.97;;;0.82;;
24449;SDS011;13349;50.984;5.822;2023-01-13T01:23:29;2.90;;;0.80;;
24449;SDS011;13349;50.984;5.822;2023-01-13T01:25:58;2.67;;;0.57;;
24449;SDS011;13349;50.984;5.822;2023-01-13T01:28:26;4.55;;;1.00;;
24449;SDS011;13349;50.984;5.822;2023-01-13T01:30:53;2.22;;;0.70;;
24449;SDS011;13349;50.984;5.822;2023-01-13T01:33:22;4.85;;;0.70;;
24449;SDS011;13349;50.984;5.822;2023-01-13T01:35:49;2.97;;;0.75;;
24449;SDS011;13349;50.984;5.822;2023-01-13T01:38:18;7.53;;;0.90;;
24449;SDS011;13349;50.984;5.822;2023-01-13T01:40:47;3.78;;;0.90;;
24449;SDS011;13349;50.984;5.822;2023-01-13T01:43:15;2.55;;;1.00;;
24449;SDS011;13349;50.984;5.822;2023-01-13T01:46:01;2.50;;;1.00;;
24449;SDS011;13349;50.984;5.822;2023-01-13T01:48:30;4.32;;;0.57;;
24449;SDS011;13349;50.984;5.822;2023-01-13T01:51:02;1.83;;;0.70;;
24449;SDS011;13349;50.984;5.822;2023-01-13T01:53:32;6.10;;;1.02;;
24449;SDS011;13349;50.984;5.822;2023-01-13T01:56:00;3.35;;;1.00;;
24449;SDS011;13349;50.984;5.822;2023-01-13T01:58:29;6.07;;;1.27;;
24449;SDS011;13349;50.984;5.822;2023-01-13T02:01:00;4.78;;;1.05;;
24449;SDS011;13349;50.984;5.822;2023-01-13T02:03:27;2.90;;;0.82;;
24449;SDS011;13349;50.984;5.822;2023-01-13T02:05:56;5.47;;;0.95;;
24449;SDS011;13349;50.984;5.822;2023-01-13T02:08:23;5.68;;;1.20;;
24449;SDS011;13349;50.984;5.822;2023-01-13T02:10:53;5.90;;;0.85;;
24449;SDS011;13349;50.984;5.822;2023-01-13T02:13:20;3.53;;;1.00;;
24449;SDS011;13349;50.984;5.822;2023-01-13T02:15:48;5.13;;;1.13;;
24449;SDS011;13349;50.984;5.822;2023-01-13T02:18:30;4.00;;;1.13;;
24449;SDS011;13349;50.984;5.822;2023-01-13T02:21:13;2.60;;;0.70;;
24449;SDS011;13349;50.984;5.822;2023-01-13T02:24:05;4.93;;;1.17;;
24449;SDS011;13349;50.984;5.822;2023-01-13T02:27:21;2.90;;;0.93;;
24449;SDS011;13349;50.984;5.822;2023-01-13T02:30:15;3.70;;;1.50;;
24449;SDS011;13349;50.984;5.822;2023-01-13T02:33:09;2.08;;;0.63;;
24449;SDS011;13349;50.984;5.822;2023-01-13T02:35:47;1.17;;;0.77;;
24449;SDS011;13349;50.984;5.822;2023-01-13T02:38:18;6.93;;;0.90;;
24449;SDS011;13349;50.984;5.822;2023-01-13T02:40:49;3.83;;;0.88;;
24449;SDS011;13349;50.984;5.822;2023-01-13T02:43:24;3.70;;;0.70;;
24449;SDS011;13349;50.984;5.822;2023-01-13T02:46:17;6.57;;;1.17;;
24449;SDS011;13349;50.984;5.822;2023-01-13T02:48:50;2.38;;;0.95;;
24449;SDS011;13349;50.984;5.822;2023-01-13T02:51:21;2.75;;;1.17;;
24449;SDS011;13349;50.984;5.822;2023-01-13T02:53:52;8.73;;;1.30;;
24449;SDS011;13349;50.984;5.822;2023-01-13T02:56:23;3.65;;;0.95;;
24449;SDS011;13349;50.984;5.822;2023-01-13T02:58:53;5.53;;;0.85;;
24449;SDS011;13349;50.984;5.822;2023-01-13T03:01:24;6.15;;;1.38;;
24449;SDS011;13349;50.984;5.822;2023-01-13T03:03:51;6.53;;;1.20;;
24449;SDS011;13349;50.984;5.822;2023-01-13T03:06:25;8.43;;;1.30;;
24449;SDS011;13349;50.984;5.822;2023-01-13T03:09:02;8.75;;;1.38;;
24449;SDS011;13349;50.984;5.822;2023-01-13T03:11:38;8.35;;;1.40;;
24449;SDS011;13349;50.984;5.822;2023-01-13T03:14:19;4.25;;;1.13;;
24449;SDS011;13349;50.984;5.822;2023-01-13T03:17:02;10.23;;;1.90;;
24449;SDS011;13349;50.984;5.822;2023-01-13T03:19:40;10.63;;;1.80;;
24449;SDS011;13349;50.984;5.822;2023-01-13T03:22:13;5.38;;;1.30;;
24449;SDS011;13349;50.984;5.822;2023-01-13T03:24:46;14.27;;;1.65;;
24449;SDS011;13349;50.984;5.822;2023-01-13T03:27:20;9.98;;;1.63;;
24449;SDS011;13349;50.984;5.822;2023-01-13T03:29:54;12.63;;;2.20;;
24449;SDS011;13349;50.984;5.822;2023-01-13T03:34:56;5.63;;;1.77;;
24449;SDS011;13349;50.984;5.822;2023-01-13T03:37:30;14.13;;;3.42;;
24449;SDS011;13349;50.984;5.822;2023-01-13T03:40:01;9.70;;;1.67;;
24449;SDS011;13349;50.984;5.822;2023-01-13T03:42:31;13.90;;;1.42;;
24449;SDS011;13349;50.984;5.822;2023-01-13T03:45:03;9.35;;;1.75;;
24449;SDS011;13349;50.984;5.822;2023-01-13T03:47:37;9.05;;;1.85;;
24449;SDS011;13349;50.984;5.822;2023-01-13T03:50:08;11.52;;;2.25;;
24449;SDS011;13349;50.984;5.822;2023-01-13T03:52:42;6.13;;;1.90;;
24449;SDS011;13349;50.984;5.822;2023-01-13T03:55:13;10.32;;;2.00;;
24449;SDS011;13349;50.984;5.822;2023-01-13T03:57:44;9.23;;;1.65;;
24449;SDS011;13349;50.984;5.822;2023-01-13T04:00:15;7.38;;;2.30;;
24449;SDS011;13349;50.984;5.822;2023-01-13T04:02:50;12.30;;;2.75;;
24449;SDS011;13349;50.984;5.822;2023-01-13T04:05:22;10.98;;;2.03;;
24449;SDS011;13349;50.984;5.822;2023-01-13T04:07:54;7.30;;;1.30;;
24449;SDS011;13349;50.984;5.822;2023-01-13T04:10:28;13.20;;;1.85;;
24449;SDS011;13349;50.984;5.822;2023-01-13T04:13:00;9.00;;;1.83;;
24449;SDS011;13349;50.984;5.822;2023-01-13T04:15:33;14.25;;;3.03;;
24449;SDS011;13349;50.984;5.822;2023-01-13T04:18:11;9.27;;;2.05;;
24449;SDS011;13349;50.984;5.822;2023-01-13T04:20:41;10.20;;;2.08;;
24449;SDS011;13349;50.984;5.822;2023-01-13T04:23:10;11.82;;;2.03;;
24449;SDS011;13349;50.984;5.822;2023-01-13T04:25:38;6.40;;;1.52;;
24449;SDS011;13349;50.984;5.822;2023-01-13T04:28:05;10.13;;;1.90;;
24449;SDS011;13349;50.984;5.822;2023-01-13T04:30:32;12.85;;;2.20;;
24449;SDS011;13349;50.984;5.822;2023-01-13T04:33:00;11.30;;;2.28;;
24449;SDS011;13349;50.984;5.822;2023-01-13T04:35:29;9.02;;;1.80;;
24449;SDS011;13349;50.984;5.822;2023-01-13T04:37:59;8.88;;;1.65;;
24449;SDS011;13349;50.984;5.822;2023-01-13T04:40:26;9.27;;;1.40;;
24449;SDS011;13349;50.984;5.822;2023-01-13T04:42:54;13.50;;;2.10;;
24449;SDS011;13349;50.984;5.822;2023-01-13T04:45:21;9.57;;;1.85;;
24449;SDS011;13349;50.984;5.822;2023-01-13T04:47:48;6.32;;;1.80;;
24449;SDS011;13349;50.984;5.822;2023-01-13T04:50:15;10.93;;;1.60;;
24449;SDS011;13349;50.984;5.822;2023-01-13T04:52:46;9.15;;;1.73;;
24449;SDS011;13349;50.984;5.822;2023-01-13T04:55:13;9.75;;;1.55;;
24449;SDS011;13349;50.984;5.822;2023-01-13T04:57:40;8.02;;;1.85;;
24449;SDS011;13349;50.984;5.822;2023-01-13T05:00:09;6.32;;;1.50;;
24449;SDS011;13349;50.984;5.822;2023-01-13T05:02:38;6.40;;;1.20;;
24449;SDS011;13349;50.984;5.822;2023-01-13T05:05:05;8.20;;;1.55;;
24449;SDS011;13349;50.984;5.822;2023-01-13T05:07:33;9.27;;;1.70;;
24449;SDS011;13349;50.984;5.822;2023-01-13T05:10:02;7.20;;;1.13;;
24449;SDS011;13349;50.984;5.822;2023-01-13T05:12:29;7.32;;;1.73;;
24449;SDS011;13349;50.984;5.822;2023-01-13T05:15:14;5.28;;;1.38;;
24449;SDS011;13349;50.984;5.822;2023-01-13T05:17:59;6.10;;;1.50;;
24449;SDS011;13349;50.984;5.822;2023-01-13T05:20:27;9.38;;;1.48;;
24449;SDS011;13349;50.984;5.822;2023-01-13T05:22:54;7.63;;;1.27;;
24449;SDS011;13349;50.984;5.822;2023-01-13T05:25:40;5.07;;;1.77;;
24449;SDS011;13349;50.984;5.822;2023-01-13T05:28:09;8.85;;;1.67;;
24449;SDS011;13349;50.984;5.822;2023-01-13T05:30:36;7.80;;;1.40;;
24449;SDS011;13349;50.984;5.822;2023-01-13T05:33:07;5.93;;;1.58;;
24449;SDS011;13349;50.984;5.822;2023-01-13T05:35:36;2.92;;;1.13;;
24449;SDS011;13349;50.984;5.822;2023-01-13T05:38:03;8.10;;;1.50;;
24449;SDS011;13349;50.984;5.822;2023-01-13T05:40:30;5.57;;;1.27;;
24449;SDS011;13349;50.984;5.822;2023-01-13T05:43:17;6.45;;;1.55;;
24449;SDS011;13349;50.984;5.822;2023-01-13T05:45:47;4.32;;;1.02;;
24449;SDS011;13349;50.984;5.822;2023-01-13T05:48:16;8.15;;;1.20;;
24449;SDS011;13349;50.984;5.822;2023-01-13T05:50:44;5.85;;;1.30;;
24449;SDS011;13349;50.984;5.822;2023-01-13T05:53:13;8.93;;;1.50;;
24449;SDS011;13349;50.984;5.822;2023-01-13T05:55:41;8.90;;;1.58;;
24449;SDS011;13349;50.984;5.822;2023-01-13T05:58:09;4.28;;;1.23;;
24449;SDS011;13349;50.984;5.822;2023-01-13T06:00:38;5.35;;;1.25;;
24449;SDS011;13349;50.984;5.822;2023-01-13T06:03:06;7.45;;;1.40;;
24449;SDS011;13349;50.984;5.822;2023-01-13T06:05:33;5.88;;;1.20;;
24449;SDS011;13349;50.984;5.822;2023-01-13T06:08:01;9.23;;;1.10;;
24449;SDS011;13349;50.984;5.822;2023-01-13T06:10:31;5.70;;;1.35;;
24449;SDS011;13349;50.984;5.822;2023-01-13T06:12:59;4.70;;;1.02;;
24449;SDS011;13349;50.984;5.822;2023-01-13T06:15:26;8.70;;;1.33;;
24449;SDS011;13349;50.984;5.822;2023-01-13T06:17:55;6.00;;;1.30;;
24449;SDS011;13349;50.984;5.822;2023-01-13T06:20:22;6.95;;;1.20;;
24449;SDS011;13349;50.984;5.822;2023-01-13T06:22:51;8.05;;;1.50;;
24449;SDS011;13349;50.984;5.822;2023-01-13T06:25:25;8.02;;;1.50;;
24449;SDS011;13349;50.984;5.822;2023-01-13T06:27:57;5.45;;;1.38;;
24449;SDS011;13349;50.984;5.822;2023-01-13T06:30:26;3.58;;;1.20;;
24449;SDS011;13349;50.984;5.822;2023-01-13T06:32:57;6.82;;;1.25;;
24449;SDS011;13349;50.984;5.822;2023-01-13T06:35:27;5.47;;;1.00;;
24449;SDS011;13349;50.984;5.822;2023-01-13T06:37:58;8.32;;;1.27;;
24449;SDS011;13349;50.984;5.822;2023-01-13T06:40:26;6.55;;;1.70;;
24449;SDS011;13349;50.984;5.822;2023-01-13T06:42:54;4.47;;;1.13;;
24449;SDS011;13349;50.984;5.822;2023-01-13T06:45:40;4.70;;;1.20;;
24449;SDS011;13349;50.984;5.822;2023-01-13T06:48:11;4.70;;;0.93;;
24449;SDS011;13349;50.984;5.822;2023-01-13T06:50:38;5.95;;;1.30;;
24449;SDS011;13349;50.984;5.822;2023-01-13T06:53:06;6.50;;;1.23;;
24449;SDS011;13349;50.984;5.822;2023-01-13T06:55:33;5.07;;;1.30;;
24449;SDS011;13349;50.984;5.822;2023-01-13T06:58:01;4.18;;;0.90;;
24449;SDS011;13349;50.984;5.822;2023-01-13T07:00:28;6.25;;;1.30;;
24449;SDS011;13349;50.984;5.822;2023-01-13T07:03:04;4.82;;;0.90;;
24449;SDS011;13349;50.984;5.822;2023-01-13T07:05:37;5.78;;;1.02;;
24449;SDS011;13349;50.984;5.822;2023-01-13T07:08:04;5.45;;;1.23;;
24449;SDS011;13349;50.984;5.822;2023-01-13T07:10:33;3.60;;;1.00;;
24449;SDS011;13349;50.984;5.822;2023-01-13T07:13:01;3.78;;;0.90;;
24449;SDS011;13349;50.984;5.822;2023-01-13T07:15:54;3.78;;;0.73;;
24449;SDS011;13349;50.984;5.822;2023-01-13T07:18:22;2.58;;;0.82;;
24449;SDS011;13349;50.984;5.822;2023-01-13T07:20:53;6.20;;;1.23;;
24449;SDS011;13349;50.984;5.822;2023-01-13T07:23:22;6.50;;;1.27;;
24449;SDS011;13349;50.984;5.822;2023-01-13T07:25:49;7.15;;;1.33;;
24449;SDS011;13349;50.984;5.822;2023-01-13T07:28:17;3.75;;;1.30;;
24449;SDS011;13349;50.984;5.822;2023-01-13T07:30:44;6.65;;;1.42;;
24449;SDS011;13349;50.984;5.822;2023-01-13T07:33:11;4.75;;;1.50;;
24449;SDS011;13349;50.984;5.822;2023-01-13T07:35:38;10.55;;;1.38;;
24449;SDS011;13349;50.984;5.822;2023-01-13T07:38:07;8.98;;;1.75;;
24449;SDS011;13349;50.984;5.822;2023-01-13T07:40:34;6.95;;;1.88;;
24449;SDS011;13349;50.984;5.822;2023-01-13T07:43:02;9.23;;;1.35;;
24449;SDS011;13349;50.984;5.822;2023-01-13T07:45:47;12.25;;;1.67;;
24449;SDS011;13349;50.984;5.822;2023-01-13T07:48:14;12.70;;;1.67;;
24449;SDS011;13349;50.984;5.822;2023-01-13T07:50:41;10.70;;;2.35;;
24449;SDS011;13349;50.984;5.822;2023-01-13T07:53:10;7.95;;;1.75;;
24449;SDS011;13349;50.984;5.822;2023-01-13T07:55:39;5.35;;;1.70;;
24449;SDS011;13349;50.984;5.822;2023-01-13T07:58:07;7.80;;;1.83;;
24449;SDS011;13349;50.984;5.822;2023-01-13T08:00:35;7.78;;;1.70;;
24449;SDS011;13349;50.984;5.822;2023-01-13T08:03:02;10.95;;;1.92;;
24449;SDS011;13349;50.984;5.822;2023-01-13T08:05:30;10.27;;;2.40;;
24449;SDS011;13349;50.984;5.822;2023-01-13T08:07:58;8.45;;;1.90;;
24449;SDS011;13349;50.984;5.822;2023-01-13T08:10:27;11.40;;;2.30;;
24449;SDS011;13349;50.984;5.822;2023-01-13T08:12:55;14.73;;;2.20;;
24449;SDS011;13349;50.984;5.822;2023-01-13T08:15:40;10.68;;;1.92;;
24449;SDS011;13349;50.984;5.822;2023-01-13T08:18:07;14.15;;;2.10;;
24449;SDS011;13349;50.984;5.822;2023-01-13T08:20:34;14.45;;;2.38;;
24449;SDS011;13349;50.984;5.822;2023-01-13T08:23:02;13.48;;;2.45;;
24449;SDS011;13349;50.984;5.822;2023-01-13T08:25:30;12.85;;;2.95;;
24449;SDS011;13349;50.984;5.822;2023-01-13T08:27:58;11.15;;;2.08;;
24449;SDS011;13349;50.984;5.822;2023-01-13T08:30:25;12.82;;;2.83;;
24449;SDS011;13349;50.984;5.822;2023-01-13T08:32:53;7.60;;;2.08;;
24449;SDS011;13349;50.984;5.822;2023-01-13T08:35:20;13.00;;;2.20;;
24449;SDS011;13349;50.984;5.822;2023-01-13T08:37:48;8.40;;;1.80;;
24449;SDS011;13349;50.984;5.822;2023-01-13T08:40:17;14.60;;;2.50;;
24449;SDS011;13349;50.984;5.822;2023-01-13T08:42:47;14.88;;;2.63;;
24449;SDS011;13349;50.984;5.822;2023-01-13T08:45:17;25.45;;;2.85;;
24449;SDS011;13349;50.984;5.822;2023-01-13T08:47:44;16.42;;;2.25;;
24449;SDS011;13349;50.984;5.822;2023-01-13T08:50:11;16.85;;;2.30;;
24449;SDS011;13349;50.984;5.822;2023-01-13T08:52:39;14.35;;;2.05;;
24449;SDS011;13349;50.984;5.822;2023-01-13T08:55:07;13.45;;;2.15;;
24449;SDS011;13349;50.984;5.822;2023-01-13T08:57:34;10.20;;;2.67;;
24449;SDS011;13349;50.984;5.822;2023-01-13T09:00:04;13.60;;;2.40;;
24449;SDS011;13349;50.984;5.822;2023-01-13T09:02:34;18.35;;;2.35;;
24449;SDS011;13349;50.984;5.822;2023-01-13T09:05:02;14.55;;;2.85;;
24449;SDS011;13349;50.984;5.822;2023-01-13T09:07:31;13.90;;;2.67;;
24449;SDS011;13349;50.984;5.822;2023-01-13T09:09:59;10.27;;;2.55;;
24449;SDS011;13349;50.984;5.822;2023-01-13T09:12:27;11.05;;;2.38;;
24449;SDS011;13349;50.984;5.822;2023-01-13T09:15:13;12.57;;;2.25;;
24449;SDS011;13349;50.984;5.822;2023-01-13T09:17:42;14.15;;;2.55;;
24449;SDS011;13349;50.984;5.822;2023-01-13T09:20:10;15.02;;;3.05;;
24449;SDS011;13349;50.984;5.822;2023-01-13T09:22:38;14.27;;;1.98;;
24449;SDS011;13349;50.984;5.822;2023-01-13T09:25:06;10.82;;;2.45;;
24449;SDS011;13349;50.984;5.822;2023-01-13T09:27:34;13.15;;;3.10;;
24449;SDS011;13349;50.984;5.822;2023-01-13T09:30:01;15.68;;;2.60;;
24449;SDS011;13349;50.984;5.822;2023-01-13T09:32:30;12.88;;;2.58;;
24449;SDS011;13349;50.984;5.822;2023-01-13T09:34:58;12.85;;;3.00;;
24449;SDS011;13349;50.984;5.822;2023-01-13T09:37:24;16.67;;;3.20;;
24449;SDS011;13349;50.984;5.822;2023-01-13T09:39:51;13.75;;;2.47;;
24449;SDS011;13349;50.984;5.822;2023-01-13T09:42:20;9.75;;;2.35;;
24449;SDS011;13349;50.984;5.822;2023-01-13T09:45:14;15.57;;;2.67;;
24449;SDS011;13349;50.984;5.822;2023-01-13T09:47:48;12.10;;;1.80;;
24449;SDS011;13349;50.984;5.822;2023-01-13T09:50:24;11.60;;;2.33;;
24449;SDS011;13349;50.984;5.822;2023-01-13T09:52:59;12.43;;;2.63;;
24449;SDS011;13349;50.984;5.822;2023-01-13T09:55:29;15.23;;;2.72;;
24449;SDS011;13349;50.984;5.822;2023-01-13T09:58:01;14.70;;;2.10;;
24449;SDS011;13349;50.984;5.822;2023-01-13T10:00:37;17.17;;;2.53;;
24449;SDS011;13349;50.984;5.822;2023-01-13T10:03:19;13.90;;;2.08;;
24449;SDS011;13349;50.984;5.822;2023-01-13T10:05:53;11.15;;;2.88;;
24449;SDS011;13349;50.984;5.822;2023-01-13T10:08:25;12.10;;;2.25;;
24449;SDS011;13349;50.984;5.822;2023-01-13T10:10:55;13.80;;;2.63;;
24449;SDS011;13349;50.984;5.822;2023-01-13T10:13:25;12.98;;;2.78;;
24449;SDS011;13349;50.984;5.822;2023-01-13T10:16:02;9.50;;;1.73;;
24449;SDS011;13349;50.984;5.822;2023-01-13T10:18:44;8.75;;;1.95;;
24449;SDS011;13349;50.984;5.822;2023-01-13T10:21:31;15.13;;;2.60;;
24449;SDS011;13349;50.984;5.822;2023-01-13T10:24:14;17.02;;;3.00;;
24449;SDS011;13349;50.984;5.822;2023-01-13T10:26:52;16.00;;;3.47;;
24449;SDS011;13349;50.984;5.822;2023-01-13T10:29:27;12.00;;;2.13;;
24449;SDS011;13349;50.984;5.822;2023-01-13T10:31:56;13.77;;;2.47;;
24449;SDS011;13349;50.984;5.822;2023-01-13T10:34:27;19.42;;;2.65;;
24449;SDS011;13349;50.984;5.822;2023-01-13T10:36:56;10.23;;;2.10;;
24449;SDS011;13349;50.984;5.822;2023-01-13T10:39:25;12.45;;;2.22;;
24449;SDS011;13349;50.984;5.822;2023-01-13T10:42:00;16.40;;;2.53;;
24449;SDS011;13349;50.984;5.822;2023-01-13T10:44:28;7.18;;;1.70;;
24449;SDS011;13349;50.984;5.822;2023-01-13T10:46:56;13.73;;;2.17;;
24449;SDS011;13349;50.984;5.822;2023-01-13T10:49:27;15.02;;;2.97;;
24449;SDS011;13349;50.984;5.822;2023-01-13T10:51:58;17.48;;;3.05;;
24449;SDS011;13349;50.984;5.822;2023-01-13T10:54:26;19.02;;;2.70;;
24449;SDS011;13349;50.984;5.822;2023-01-13T10:59:40;19.40;;;2.70;;
24449;SDS011;13349;50.984;5.822;2023-01-13T11:05:14;14.48;;;2.35;;
24449;SDS011;13349;50.984;5.822;2023-01-13T11:07:47;18.13;;;2.20;;
24449;SDS011;13349;50.984;5.822;2023-01-13T11:10:20;15.10;;;2.97;;
24449;SDS011;13349;50.984;5.822;2023-01-13T11:13:02;17.00;;;2.65;;
24449;SDS011;13349;50.984;5.822;2023-01-13T11:15:37;13.57;;;2.67;;
24449;SDS011;13349;50.984;5.822;2023-01-13T11:18:12;14.55;;;2.83;;
24449;SDS011;13349;50.984;5.822;2023-01-13T11:20:46;16.65;;;3.13;;
24449;SDS011;13349;50.984;5.822;2023-01-13T11:23:17;12.75;;;2.65;;
24449;SDS011;13349;50.984;5.822;2023-01-13T11:25:53;16.08;;;3.00;;
24449;SDS011;13349;50.984;5.822;2023-01-13T11:28:35;13.23;;;3.22;;
24449;SDS011;13349;50.984;5.822;2023-01-13T11:31:09;13.45;;;2.58;;
24449;SDS011;13349;50.984;5.822;2023-01-13T11:33:41;8.80;;;2.08;;
24449;SDS011;13349;50.984;5.822;2023-01-13T11:36:17;11.85;;;2.15;;
24449;SDS011;13349;50.984;5.822;2023-01-13T11:38:49;13.15;;;2.55;;
24449;SDS011;13349;50.984;5.822;2023-01-13T11:41:29;13.32;;;2.30;;
24449;SDS011;13349;50.984;5.822;2023-01-13T11:46:35;12.70;;;1.88;;
24449;SDS011;13349;50.984;5.822;2023-01-13T11:49:02;12.52;;;2.50;;
24449;SDS011;13349;50.984;5.822;2023-01-13T11:51:37;12.07;;;2.15;;
24449;SDS011;13349;50.984;5.822;2023-01-13T11:54:25;16.88;;;2.90;;
24449;SDS011;13349;50.984;5.822;2023-01-13T11:57:17;9.57;;;2.55;;
24449;SDS011;13349;50.984;5.822;2023-01-13T12:00:12;13.15;;;2.22;;
24449;SDS011;13349;50.984;5.822;2023-01-13T12:03:01;11.75;;;3.40;;
24449;SDS011;13349;50.984;5.822;2023-01-13T12:05:46;17.85;;;2.90;;
24449;SDS011;13349;50.984;5.822;2023-01-13T12:08:37;16.75;;;3.50;;
24449;SDS011;13349;50.984;5.822;2023-01-13T12:11:18;19.00;;;3.13;;
24449;SDS011;13349;50.984;5.822;2023-01-13T12:16:24;9.35;;;2.13;;
24449;SDS011;13349;50.984;5.822;2023-01-13T12:19:10;10.52;;;2.50;;
24449;SDS011;13349;50.984;5.822;2023-01-13T12:21:58;12.60;;;2.45;;
24449;SDS011;13349;50.984;5.822;2023-01-13T12:24:36;21.98;;;2.78;;
24449;SDS011;13349;50.984;5.822;2023-01-13T12:27:15;12.82;;;2.22;;
24449;SDS011;13349;50.984;5.822;2023-01-13T12:29:47;20.27;;;2.65;;
24449;SDS011;13349;50.984;5.822;2023-01-13T12:32:20;12.63;;;2.63;;
24449;SDS011;13349;50.984;5.822;2023-01-13T12:34:56;9.95;;;2.10;;
24449;SDS011;13349;50.984;5.822;2023-01-13T12:37:34;11.75;;;2.17;;
24449;SDS011;13349;50.984;5.822;2023-01-13T12:40:18;14.07;;;2.38;;
24449;SDS011;13349;50.984;5.822;2023-01-13T12:42:54;6.55;;;1.80;;
24449;SDS011;13349;50.984;5.822;2023-01-13T12:45:51;12.05;;;2.67;;
24449;SDS011;13349;50.984;5.822;2023-01-13T12:51:20;6.93;;;1.90;;
24449;SDS011;13349;50.984;5.822;2023-01-13T12:53:48;9.52;;;1.77;;
24449;SDS011;13349;50.984;5.822;2023-01-13T12:56:27;7.65;;;1.95;;
24449;SDS011;13349;50.984;5.822;2023-01-13T13:02:33;12.60;;;2.50;;
24449;SDS011;13349;50.984;5.822;2023-01-13T13:08:05;16.80;;;2.53;;
24449;SDS011;13349;50.984;5.822;2023-01-13T13:14:01;9.95;;;2.50;;
24449;SDS011;13349;50.984;5.822;2023-01-13T13:22:16;10.93;;;2.50;;
24449;SDS011;13349;50.984;5.822;2023-01-13T13:27:45;26.08;;;4.18;;
24449;SDS011;13349;50.984;5.822;2023-01-13T13:30:21;13.88;;;2.88;;
24449;SDS011;13349;50.984;5.822;2023-01-13T13:32:59;16.00;;;3.05;;
24449;SDS011;13349;50.984;5.822;2023-01-13T13:35:37;16.15;;;3.38;;
24449;SDS011;13349;50.984;5.822;2023-01-13T13:38:30;14.43;;;3.25;;
24449;SDS011;13349;50.984;5.822;2023-01-13T13:41:27;13.75;;;2.38;;
24449;SDS011;13349;50.984;5.822;2023-01-13T13:44:13;15.13;;;3.05;;
24449;SDS011;13349;50.984;5.822;2023-01-13T13:47:06;17.08;;;2.60;;
24449;SDS011;13349;50.984;5.822;2023-01-13T13:49:36;12.88;;;2.33;;
24449;SDS011;13349;50.984;5.822;2023-01-13T13:52:07;13.88;;;2.22;;
24449;SDS011;13349;50.984;5.822;2023-01-13T13:54:40;14.88;;;3.08;;
24449;SDS011;13349;50.984;5.822;2023-01-13T13:57:18;18.13;;;2.70;;
24449;SDS011;13349;50.984;5.822;2023-01-13T13:59:49;14.65;;;2.70;;
24449;SDS011;13349;50.984;5.822;2023-01-13T14:05:05;13.43;;;2.67;;
24449;SDS011;13349;50.984;5.822;2023-01-13T14:07:41;15.15;;;2.35;;
24449;SDS011;13349;50.984;5.822;2023-01-13T14:10:19;10.75;;;2.70;;
24449;SDS011;13349;50.984;5.822;2023-01-13T14:12:50;12.00;;;2.42;;
24449;SDS011;13349;50.984;5.822;2023-01-13T14:15:31;18.02;;;3.15;;
24449;SDS011;13349;50.984;5.822;2023-01-13T14:18:02;20.50;;;3.15;;
24449;SDS011;13349;50.984;5.822;2023-01-13T14:20:31;17.05;;;3.25;;
24449;SDS011;13349;50.984;5.822;2023-01-13T14:23:01;21.80;;;3.75;;
24449;SDS011;13349;50.984;5.822;2023-01-13T14:25:30;21.67;;;3.78;;
24449;SDS011;13349;50.984;5.822;2023-01-13T14:28:08;17.40;;;4.03;;
24449;SDS011;13349;50.984;5.822;2023-01-13T14:30:47;15.02;;;3.30;;
24449;SDS011;13349;50.984;5.822;2023-01-13T14:33:17;20.23;;;3.80;;
24449;SDS011;13349;50.984;5.822;2023-01-13T14:36:06;12.32;;;3.10;;
24449;SDS011;13349;50.984;5.822;2023-01-13T14:38:40;16.67;;;3.25;;
24449;SDS011;13349;50.984;5.822;2023-01-13T14:41:15;12.98;;;2.53;;
24449;SDS011;13349;50.984;5.822;2023-01-13T14:43:46;16.70;;;4.05;;
24449;SDS011;13349;50.984;5.822;2023-01-13T14:46:14;19.60;;;3.58;;
24449;SDS011;13349;50.984;5.822;2023-01-13T14:48:46;14.10;;;3.53;;
24449;SDS011;13349;50.984;5.822;2023-01-13T14:51:22;20.63;;;3.30;;
24449;SDS011;13349;50.984;5.822;2023-01-13T14:53:51;18.75;;;3.72;;
24449;SDS011;13349;50.984;5.822;2023-01-13T15:02:00;28.33;;;4.47;;
24449;SDS011;13349;50.984;5.822;2023-01-13T15:04:50;18.85;;;3.78;;
24449;SDS011;13349;50.984;5.822;2023-01-13T15:07:21;20.42;;;4.13;;
24449;SDS011;13349;50.984;5.822;2023-01-13T15:09:52;27.05;;;3.78;;
24449;SDS011;13349;50.984;5.822;2023-01-13T15:12:22;21.27;;;3.83;;
24449;SDS011;13349;50.984;5.822;2023-01-13T15:14:54;24.35;;;3.38;;
24449;SDS011;13349;50.984;5.822;2023-01-13T15:17:22;20.17;;;3.42;;
24449;SDS011;13349;50.984;5.822;2023-01-13T15:19:51;16.42;;;2.78;;
24449;SDS011;13349;50.984;5.822;2023-01-13T15:22:19;15.00;;;3.17;;
24449;SDS011;13349;50.984;5.822;2023-01-13T15:24:46;17.83;;;2.95;;
24449;SDS011;13349;50.984;5.822;2023-01-13T15:27:15;14.30;;;3.25;;
24449;SDS011;13349;50.984;5.822;2023-01-13T15:29:44;22.25;;;3.80;;
24449;SDS011;13349;50.984;5.822;2023-01-13T15:32:15;15.52;;;3.30;;
24449;SDS011;13349;50.984;5.822;2023-01-13T15:34:44;24.98;;;4.07;;
24449;SDS011;13349;50.984;5.822;2023-01-13T15:37:13;12.50;;;3.05;;
24449;SDS011;13349;50.984;5.822;2023-01-13T15:39:41;19.83;;;4.13;;
24449;SDS011;13349;50.984;5.822;2023-01-13T15:42:11;25.77;;;4.80;;
24449;SDS011;13349;50.984;5.822;2023-01-13T15:44:56;27.42;;;4.35;;
24449;SDS011;13349;50.984;5.822;2023-01-13T15:47:41;18.67;;;4.00;;
24449;SDS011;13349;50.984;5.822;2023-01-13T15:50:12;22.20;;;3.67;;
24449;SDS011;13349;50.984;5.822;2023-01-13T15:52:41;16.98;;;3.10;;
24449;SDS011;13349;50.984;5.822;2023-01-13T15:55:09;14.68;;;3.35;;